Punta Salinas — EABF — position and weather

sailwx.info

Track history (hours):
 
Tides and Currents Weather Stations Pressure Air Temp Water Temp Dewpoint Dewpoint Depression Visibility Wind Speed Wind Dir Waves Ship Positions

Punta Salinas

Last reported at 2017-Mar-21 15:07 UTC. Time now 2017-Mar-26 15:21 UTC.
Position N 28°27' W 016°13'.

Length 62 m; draft 5 m.

Type: SAR. MMSI: 224522000.

Date/timePositionNaut miles runAvg speedWind from/ knotsBaromVisibWave heightAir tempDewpointWater temp
2017-Mar-21 15:07N 28°27' W 016°13'3 5.7
2017-Mar-21 14:33N 28°24' W 016°14'  
2017-Mar-13 19:16N 28°28' W 016°13'8 9.9
2017-Mar-13 18:30N 28°26' W 016°04'8 8.6
2017-Mar-13 17:32N 28°21' W 015°57'9 9.5
2017-Mar-13 16:33N 28°20' W 015°46'1010.2
2017-Mar-13 15:33N 28°23' W 015°35'6 6.3
2017-Mar-13 14:33N 28°20' W 015°29'7 7.3
2017-Mar-13 13:33N 28°14' W 015°25'6 6.1
2017-Mar-13 12:33N 28°08' W 015°23'2 2.1
2017-Mar-13 11:31N 28°08' W 015°25'0 0.0
2017-Mar-13 10:31N 28°08' W 015°25'0 0.0
2017-Mar-13 09:31N 28°08' W 015°25'0 0.0
2017-Mar-13 08:22N 28°08' W 015°25'0 0.0
2017-Mar-13 07:31N 28°08' W 015°25'0 0.0
2017-Mar-13 06:22N 28°08' W 015°25'0 0.0
2017-Mar-13 05:22N 28°08' W 015°25'0 0.0
2017-Mar-13 04:28N 28°08' W 015°25'0 0.0
2017-Mar-13 03:28N 28°08' W 015°25'0 0.0
2017-Mar-13 02:28N 28°08' W 015°25'0 0.0
2017-Mar-13 01:28N 28°08' W 015°25'0 0.0
2017-Mar-13 00:25N 28°08' W 015°25'0 0.0
2017-Mar-12 23:28N 28°08' W 015°25'0 0.0
2017-Mar-12 22:31N 28°08' W 015°25'0 0.0
2017-Mar-12 21:31N 28°08' W 015°25'0 0.0
2017-Mar-12 20:31N 28°08' W 015°25'0 0.0
2017-Mar-12 19:19N 28°08' W 015°25'0 0.0
2017-Mar-12 18:31N 28°08' W 015°25'0 0.0
2017-Mar-12 17:31N 28°08' W 015°25'0 0.0
2017-Mar-12 16:22N 28°08' W 015°25'0 0.0
2017-Mar-12 15:10N 28°08' W 015°25'0 0.0
2017-Mar-12 14:28N 28°08' W 015°25'0 0.0
2017-Mar-12 13:28N 28°08' W 015°25'0 0.0
2017-Mar-12 12:28N 28°08' W 015°25'0 0.0
2017-Mar-12 11:28N 28°08' W 015°25'0 0.0
2017-Mar-12 10:25N 28°08' W 015°25'0 0.0
2017-Mar-12 09:28N 28°08' W 015°25'0 0.0
2017-Mar-12 08:31N 28°08' W 015°25'0 0.0
2017-Mar-12 07:31N 28°08' W 015°25'0 0.0
2017-Mar-12 06:19N 28°08' W 015°25'0 0.0
2017-Mar-12 05:31N 28°08' W 015°25'0 0.0
2017-Mar-12 04:22N 28°08' W 015°25'0 0.0
2017-Mar-12 03:31N 28°08' W 015°25'0 0.0
2017-Mar-12 02:31N 28°08' W 015°25'0 0.0
2017-Mar-12 01:22N 28°08' W 015°25'0 0.0
2017-Mar-12 00:28N 28°08' W 015°25'0 0.0
2017-Mar-11 23:28N 28°08' W 015°25'0 0.0
2017-Mar-11 22:28N 28°08' W 015°25'0 0.0
2017-Mar-11 21:25N 28°08' W 015°25'0 0.0
2017-Mar-11 20:28N 28°08' W 015°25'0 0.0
2017-Mar-11 19:28N 28°08' W 015°25'0 0.0
2017-Mar-11 18:31N 28°08' W 015°25'0 0.0
2017-Mar-11 17:31N 28°08' W 015°25'0 0.0
2017-Mar-11 16:31N 28°08' W 015°25'0 0.0
2017-Mar-11 15:31N 28°08' W 015°25'  
Track history (hours):
 
Tides and Currents Weather Stations Pressure Air Temp Water Temp Dewpoint Dewpoint Depression Visibility Wind Speed Wind Dir Waves Ship Positions

Punta Salinas

Last reported at 2017-Mar-21 15:07 UTC. Time now 2017-Mar-26 15:21 UTC.
Position N 28°27' W 016°13'.

Length 62 m; draft 5 m.

Type: SAR. MMSI: 224522000.

Date/timePositionNaut miles runAvg speedWind from/ knotsBaromVisibWave heightAir tempDewpointWater temp
2017-Mar-21 15:07N 28°27' W 016°13'3 5.7
2017-Mar-21 14:33N 28°24' W 016°14'  
2017-Mar-13 19:16N 28°28' W 016°13'8 9.9
2017-Mar-13 18:30N 28°26' W 016°04'8 8.6
2017-Mar-13 17:32N 28°21' W 015°57'9 9.5
2017-Mar-13 16:33N 28°20' W 015°46'1010.2
2017-Mar-13 15:33N 28°23' W 015°35'6 6.3
2017-Mar-13 14:33N 28°20' W 015°29'7 7.3
2017-Mar-13 13:33N 28°14' W 015°25'6 6.1
2017-Mar-13 12:33N 28°08' W 015°23'2 2.1
2017-Mar-13 11:31N 28°08' W 015°25'0 0.0
2017-Mar-13 10:31N 28°08' W 015°25'0 0.0
2017-Mar-13 09:31N 28°08' W 015°25'0 0.0
2017-Mar-13 08:22N 28°08' W 015°25'0 0.0
2017-Mar-13 07:31N 28°08' W 015°25'0 0.0
2017-Mar-13 06:22N 28°08' W 015°25'0 0.0
2017-Mar-13 05:22N 28°08' W 015°25'0 0.0
2017-Mar-13 04:28N 28°08' W 015°25'0 0.0
2017-Mar-13 03:28N 28°08' W 015°25'0 0.0
2017-Mar-13 02:28N 28°08' W 015°25'0 0.0
2017-Mar-13 01:28N 28°08' W 015°25'0 0.0
2017-Mar-13 00:25N 28°08' W 015°25'0 0.0
2017-Mar-12 23:28N 28°08' W 015°25'0 0.0
2017-Mar-12 22:31N 28°08' W 015°25'0 0.0
2017-Mar-12 21:31N 28°08' W 015°25'0 0.0
2017-Mar-12 20:31N 28°08' W 015°25'0 0.0
2017-Mar-12 19:19N 28°08' W 015°25'0 0.0
2017-Mar-12 18:31N 28°08' W 015°25'0 0.0
2017-Mar-12 17:31N 28°08' W 015°25'0 0.0
2017-Mar-12 16:22N 28°08' W 015°25'0 0.0
2017-Mar-12 15:10N 28°08' W 015°25'0 0.0
2017-Mar-12 14:28N 28°08' W 015°25'0 0.0
2017-Mar-12 13:28N 28°08' W 015°25'0 0.0
2017-Mar-12 12:28N 28°08' W 015°25'0 0.0
2017-Mar-12 11:28N 28°08' W 015°25'0 0.0
2017-Mar-12 10:25N 28°08' W 015°25'0 0.0
2017-Mar-12 09:28N 28°08' W 015°25'0 0.0
2017-Mar-12 08:31N 28°08' W 015°25'0 0.0
2017-Mar-12 07:31N 28°08' W 015°25'0 0.0
2017-Mar-12 06:19N 28°08' W 015°25'0 0.0
2017-Mar-12 05:31N 28°08' W 015°25'0 0.0
2017-Mar-12 04:22N 28°08' W 015°25'0 0.0
2017-Mar-12 03:31N 28°08' W 015°25'0 0.0
2017-Mar-12 02:31N 28°08' W 015°25'0 0.0
2017-Mar-12 01:22N 28°08' W 015°25'0 0.0
2017-Mar-12 00:28N 28°08' W 015°25'0 0.0
2017-Mar-11 23:28N 28°08' W 015°25'0 0.0
2017-Mar-11 22:28N 28°08' W 015°25'0 0.0
2017-Mar-11 21:25N 28°08' W 015°25'0 0.0
2017-Mar-11 20:28N 28°08' W 015°25'0 0.0
2017-Mar-11 19:28N 28°08' W 015°25'0 0.0
2017-Mar-11 18:31N 28°08' W 015°25'0 0.0
2017-Mar-11 17:31N 28°08' W 015°25'0 0.0
2017-Mar-11 16:31N 28°08' W 015°25'0 0.0
2017-Mar-11 15:31N 28°08' W 015°25'  

Dump ship's entire track history